createdAt,value
2022-11-17T00:00:07.373Z,2.50
2022-11-17T00:02:37.822Z,2.45
2022-11-17T00:05:06.438Z,2.63
2022-11-17T00:07:36.152Z,2.60
2022-11-17T00:10:04.528Z,2.65
2022-11-17T00:12:50.370Z,2.58
2022-11-17T00:15:18.777Z,2.67
2022-11-17T00:17:48.607Z,2.20
2022-11-17T00:20:34.342Z,2.15
2022-11-17T00:23:07.300Z,2.50
2022-11-17T00:25:35.628Z,2.30
2022-11-17T00:28:03.893Z,2.45
2022-11-17T00:30:49.976Z,2.40
2022-11-17T00:33:36.135Z,2.90
2022-11-17T00:36:04.885Z,2.20
2022-11-17T00:38:34.515Z,2.17
2022-11-17T00:41:02.802Z,2.25
2022-11-17T00:43:31.164Z,2.40
2022-11-17T00:45:59.458Z,2.17
2022-11-17T00:48:27.783Z,2.30
2022-11-17T00:50:56.062Z,2.50
2022-11-17T00:53:24.355Z,2.05
2022-11-17T00:55:53.979Z,2.40
2022-11-17T00:58:22.323Z,2.38
2022-11-17T01:00:50.785Z,2.45
2022-11-17T01:03:19.113Z,2.33
2022-11-17T01:05:47.405Z,2.25
2022-11-17T01:08:15.732Z,2.10
2022-11-17T01:10:44.039Z,2.45
2022-11-17T01:13:13.708Z,2.20
2022-11-17T01:15:42.031Z,2.20
2022-11-17T01:18:10.928Z,2.20
2022-11-17T01:20:39.265Z,2.10
2022-11-17T01:23:07.562Z,2.58
2022-11-17T01:25:35.857Z,2.25
2022-11-17T01:28:04.147Z,2.50
2022-11-17T01:30:33.839Z,2.40
2022-11-17T01:33:02.118Z,2.13
2022-11-17T01:35:30.410Z,2.05
2022-11-17T01:37:58.674Z,2.30
2022-11-17T01:40:26.969Z,2.30
2022-11-17T01:42:55.267Z,2.70
2022-11-17T01:45:24.201Z,2.42
2022-11-17T01:47:55.360Z,1.77
2022-11-17T01:50:29.128Z,2.35
2022-11-17T01:52:59.861Z,2.30
2022-11-17T01:55:31.261Z,2.05
2022-11-17T01:58:01.936Z,2.58
2022-11-17T02:00:30.512Z,2.58
2022-11-17T02:03:00.435Z,2.55
2022-11-17T02:05:32.003Z,2.42
2022-11-17T02:08:01.429Z,2.50
2022-11-17T02:10:31.749Z,2.20
2022-11-17T02:13:00.550Z,2.20
2022-11-17T02:15:29.785Z,2.35
2022-11-17T02:18:00.260Z,2.40
2022-11-17T02:20:46.559Z,2.10
2022-11-17T02:23:33.167Z,2.13
2022-11-17T02:26:10.477Z,2.03
2022-11-17T02:28:42.580Z,2.35
2022-11-17T02:31:19.178Z,2.00
2022-11-17T02:33:54.936Z,2.20
2022-11-17T02:36:28.056Z,2.20
2022-11-17T02:39:00.402Z,2.25
2022-11-17T02:41:30.753Z,2.08
2022-11-17T02:44:06.235Z,2.50
2022-11-17T02:46:40.899Z,2.03
2022-11-17T02:49:13.578Z,2.35
2022-11-17T02:51:42.583Z,2.38
2022-11-17T02:54:11.738Z,2.03
2022-11-17T02:56:42.211Z,2.15
2022-11-17T02:59:12.824Z,2.40
2022-11-17T03:02:08.283Z,2.30
2022-11-17T03:04:41.748Z,1.98
2022-11-17T03:07:19.223Z,2.10
2022-11-17T03:09:51.011Z,2.42
2022-11-17T03:12:23.807Z,2.00
2022-11-17T03:14:59.942Z,2.47
2022-11-17T03:17:30.718Z,2.38
2022-11-17T03:20:00.441Z,2.10
2022-11-17T03:22:31.221Z,2.33
2022-11-17T03:25:02.059Z,2.05
2022-11-17T03:27:34.455Z,2.83
2022-11-17T03:30:06.093Z,2.08
2022-11-17T03:32:38.362Z,2.25
2022-11-17T03:35:08.663Z,2.17
2022-11-17T03:37:38.966Z,2.50
2022-11-17T03:40:10.514Z,2.28
2022-11-17T03:42:40.184Z,2.58
2022-11-17T03:45:12.005Z,2.08
2022-11-17T03:47:40.731Z,2.40
2022-11-17T03:50:12.472Z,2.30
2022-11-17T03:52:40.817Z,2.20
2022-11-17T03:55:09.556Z,2.00
2022-11-17T03:57:41.951Z,2.30
2022-11-17T04:00:13.031Z,2.17
2022-11-17T04:02:42.907Z,2.38
2022-11-17T04:05:11.226Z,2.15
2022-11-17T04:07:41.049Z,1.83
2022-11-17T04:10:10.527Z,1.70
2022-11-17T04:12:56.350Z,2.10
2022-11-17T04:15:52.260Z,1.75
2022-11-17T04:18:20.832Z,2.10
2022-11-17T04:20:51.463Z,1.90
2022-11-17T04:23:20.173Z,1.88
2022-11-17T04:26:09.269Z,1.98
2022-11-17T04:28:38.385Z,1.90
2022-11-17T04:31:09.417Z,1.60
2022-11-17T04:33:38.709Z,1.80
2022-11-17T04:36:07.802Z,1.67
2022-11-17T04:38:36.497Z,1.73
2022-11-17T04:41:23.790Z,1.70
2022-11-17T04:43:52.304Z,1.67
2022-11-17T04:46:22.868Z,1.60
2022-11-17T04:48:51.412Z,1.92
2022-11-17T04:51:19.692Z,1.30
2022-11-17T04:53:48.306Z,1.73
2022-11-17T04:56:16.643Z,1.77
2022-11-17T04:58:44.971Z,1.55
2022-11-17T05:01:13.303Z,1.50
2022-11-17T05:03:44.247Z,1.73
2022-11-17T05:06:13.357Z,1.30
2022-11-17T05:08:41.703Z,1.33
2022-11-17T05:11:28.269Z,1.35
2022-11-17T05:13:56.599Z,1.50
2022-11-17T05:16:44.991Z,1.23
2022-11-17T05:19:15.855Z,1.50
2022-11-17T05:21:44.214Z,1.63
2022-11-17T05:24:11.621Z,1.58
2022-11-17T05:26:40.107Z,1.80
2022-11-17T05:29:09.555Z,1.58
2022-11-17T05:31:37.857Z,1.50
2022-11-17T05:34:07.142Z,1.35
2022-11-17T05:36:36.979Z,1.38
2022-11-17T05:39:05.281Z,1.30
2022-11-17T05:41:33.586Z,1.55
2022-11-17T05:44:01.888Z,1.50
2022-11-17T05:46:30.176Z,1.35
2022-11-17T05:48:58.475Z,1.55
2022-11-17T05:51:27.057Z,1.33
2022-11-17T05:53:56.775Z,1.73
2022-11-17T05:56:31.909Z,1.50
2022-11-17T05:59:02.684Z,1.50
2022-11-17T06:01:31.419Z,1.88
2022-11-17T06:04:02.492Z,2.00
2022-11-17T06:06:31.659Z,1.63
2022-11-17T06:09:01.343Z,1.70
2022-11-17T06:11:29.652Z,1.70
2022-11-17T06:13:57.914Z,1.55
2022-11-17T06:16:28.957Z,1.73
2022-11-17T06:19:02.251Z,1.80
2022-11-17T06:21:49.269Z,1.63
2022-11-17T06:24:20.309Z,1.90
2022-11-17T06:26:48.731Z,1.85
2022-11-17T06:29:17.331Z,2.20
2022-11-17T06:31:46.255Z,1.88
2022-11-17T06:34:14.806Z,2.03
2022-11-17T06:36:43.118Z,1.98
2022-11-17T06:39:11.416Z,1.95
2022-11-17T06:41:41.118Z,1.90
2022-11-17T06:44:09.451Z,1.98
2022-11-17T06:46:38.831Z,2.40
2022-11-17T06:49:07.570Z,2.03
2022-11-17T06:51:38.857Z,2.15
2022-11-17T06:54:10.402Z,2.00
2022-11-17T06:56:38.773Z,1.80
2022-11-17T06:59:08.488Z,1.88
2022-11-17T07:01:36.901Z,1.75
2022-11-17T07:04:05.403Z,2.75
2022-11-17T07:06:33.753Z,1.90
2022-11-17T07:09:02.074Z,1.80
2022-11-17T07:11:30.412Z,1.77
2022-11-17T07:13:59.232Z,1.90
2022-11-17T07:16:30.668Z,1.50
2022-11-17T07:18:59.551Z,1.60
2022-11-17T07:21:28.045Z,1.75
2022-11-17T07:23:56.404Z,1.42
2022-11-17T07:26:24.716Z,1.20
2022-11-17T07:28:53.056Z,1.35
2022-11-17T07:31:21.401Z,1.30
2022-11-17T07:33:51.172Z,1.25
2022-11-17T07:36:19.617Z,1.42
2022-11-17T07:38:47.986Z,1.40
2022-11-17T07:41:16.477Z,1.38
2022-11-17T07:43:44.813Z,1.30
2022-11-17T07:46:14.076Z,1.52
2022-11-17T07:48:42.618Z,1.55
2022-11-17T07:51:14.009Z,1.65
2022-11-17T07:53:42.420Z,1.10
2022-11-17T07:56:11.463Z,1.20
2022-11-17T07:58:40.135Z,1.52
2022-11-17T08:01:09.154Z,1.30
2022-11-17T08:03:37.614Z,0.93
2022-11-17T08:06:06.423Z,1.10
2022-11-17T08:08:36.334Z,0.98
2022-11-17T08:11:05.417Z,1.05
2022-11-17T08:13:33.801Z,1.10
2022-11-17T08:16:02.259Z,1.13
2022-11-17T08:18:31.025Z,0.95
2022-11-17T08:21:03.365Z,1.00
2022-11-17T08:23:31.758Z,0.77
2022-11-17T08:26:01.442Z,1.20
2022-11-17T08:28:29.844Z,1.10
2022-11-17T08:30:58.237Z,0.88
2022-11-17T08:33:26.565Z,1.10
2022-11-17T08:35:58.016Z,0.90
2022-11-17T08:38:28.913Z,1.13
2022-11-17T08:40:57.385Z,1.38
2022-11-17T08:43:27.093Z,1.00
2022-11-17T08:45:55.447Z,1.40
2022-11-17T08:48:23.959Z,1.00
2022-11-17T08:50:52.405Z,1.10
2022-11-17T08:53:22.107Z,1.08
2022-11-17T08:55:51.740Z,0.93
2022-11-17T08:58:20.312Z,1.20
2022-11-17T09:00:50.061Z,1.73
2022-11-17T09:03:18.442Z,1.05
2022-11-17T09:05:48.278Z,0.95
2022-11-17T09:08:43.845Z,1.27
2022-11-17T09:11:06.462Z,1.80
2022-11-17T09:13:35.137Z,1.23
2022-11-17T09:16:05.168Z,1.10
2022-11-17T09:18:34.021Z,1.00
2022-11-17T09:21:02.646Z,1.35
2022-11-17T09:23:31.621Z,1.13
2022-11-17T09:26:00.062Z,0.80
2022-11-17T09:28:28.757Z,1.30
2022-11-17T09:30:57.114Z,0.90
2022-11-17T09:33:26.874Z,0.93
2022-11-17T09:35:58.422Z,1.20
2022-11-17T09:38:26.753Z,1.05
2022-11-17T09:40:58.259Z,1.65
2022-11-17T09:43:30.067Z,1.17
2022-11-17T09:46:07.187Z,0.80
2022-11-17T09:48:41.891Z,0.80
2022-11-17T09:51:13.079Z,0.90
2022-11-17T09:53:44.717Z,0.70
2022-11-17T09:56:13.683Z,0.90
2022-11-17T09:58:45.294Z,0.85
2022-11-17T10:01:14.535Z,0.90
2022-11-17T10:03:46.581Z,1.10
2022-11-17T10:06:16.950Z,1.25
2022-11-17T10:08:48.453Z,1.02
2022-11-17T10:11:32.980Z,0.93
2022-11-17T10:14:04.358Z,0.88
2022-11-17T10:20:27.955Z,1.08
2022-11-17T10:22:57.672Z,1.30
2022-11-17T10:25:37.548Z,1.25
2022-11-17T10:28:06.306Z,0.90
2022-11-17T10:30:34.847Z,0.85
2022-11-17T10:33:03.958Z,1.20
2022-11-17T10:35:34.689Z,1.50
2022-11-17T10:38:04.281Z,1.10
2022-11-17T10:40:33.721Z,1.13
2022-11-17T10:43:04.735Z,0.95
2022-11-17T10:45:33.375Z,0.95
2022-11-17T10:48:11.603Z,1.02
2022-11-17T10:50:52.209Z,1.20
2022-11-17T10:53:31.437Z,0.93
2022-11-17T10:56:03.113Z,1.63
2022-11-17T10:58:32.744Z,1.35
2022-11-17T11:01:02.957Z,1.27
2022-11-17T11:03:37.256Z,1.10
2022-11-17T11:06:29.443Z,1.00
2022-11-17T11:09:05.234Z,1.08
2022-11-17T11:11:42.912Z,1.02
2022-11-17T11:14:15.116Z,1.25
2022-11-17T11:16:53.680Z,0.98
2022-11-17T11:19:31.683Z,1.00
2022-11-17T11:22:33.023Z,1.02
2022-11-17T11:25:11.793Z,1.27
2022-11-17T11:28:02.853Z,1.05
2022-11-17T11:30:40.350Z,1.10
2022-11-17T11:33:24.951Z,1.10
2022-11-17T11:36:10.802Z,0.90
2022-11-17T11:38:54.811Z,1.00
2022-11-17T11:41:40.083Z,1.00
2022-11-17T11:44:20.743Z,0.90
2022-11-17T11:46:59.576Z,2.10
2022-11-17T11:49:33.822Z,1.13
2022-11-17T11:52:03.578Z,1.10
2022-11-17T11:54:40.106Z,0.98
2022-11-17T11:57:12.157Z,1.10
2022-11-17T11:59:52.314Z,0.95
2022-11-17T12:02:26.606Z,0.70
2022-11-17T12:05:04.399Z,1.45
2022-11-17T12:07:44.820Z,1.15
2022-11-17T12:10:21.024Z,1.00
2022-11-17T12:12:52.822Z,1.23
2022-11-17T12:15:42.335Z,1.20
2022-11-17T12:18:19.780Z,0.93
2022-11-17T12:20:55.254Z,1.20
2022-11-17T12:23:47.578Z,1.25
2022-11-17T12:26:26.978Z,1.10
2022-11-17T12:29:14.171Z,0.88
2022-11-17T12:31:49.017Z,0.80
2022-11-17T12:34:22.561Z,0.90
2022-11-17T12:37:06.192Z,1.00
2022-11-17T12:39:59.086Z,0.77
2022-11-17T12:42:30.005Z,0.80
2022-11-17T12:45:01.228Z,1.35
2022-11-17T12:47:35.116Z,1.25
2022-11-17T12:50:30.801Z,0.98
2022-11-17T12:53:27.648Z,0.70
2022-11-17T12:56:20.148Z,0.63
2022-11-17T12:58:57.358Z,0.60
2022-11-17T13:01:31.565Z,0.80
2022-11-17T13:04:03.667Z,0.60
2022-11-17T13:06:35.842Z,0.90
2022-11-17T13:09:16.164Z,0.77
2022-11-17T13:12:01.622Z,0.65
2022-11-17T13:14:32.441Z,0.65
2022-11-17T13:17:03.148Z,0.73
2022-11-17T13:19:34.027Z,1.02
2022-11-17T13:22:05.655Z,0.90
2022-11-17T13:24:35.325Z,0.80
2022-11-17T13:27:08.096Z,0.95
2022-11-17T13:29:42.536Z,1.05
2022-11-17T13:32:16.770Z,0.73
2022-11-17T13:34:50.675Z,0.73
2022-11-17T13:37:21.352Z,1.38
2022-11-17T13:39:59.148Z,0.70
2022-11-17T13:42:36.560Z,0.70
2022-11-17T13:45:10.891Z,1.00
2022-11-17T13:47:46.286Z,0.60
2022-11-17T13:50:26.879Z,0.90
2022-11-17T13:52:56.598Z,1.10
2022-11-17T13:55:26.325Z,0.90
2022-11-17T13:57:58.625Z,0.85
2022-11-17T14:00:29.325Z,0.70
2022-11-17T14:02:58.175Z,0.80
2022-11-17T14:05:27.394Z,1.17
2022-11-17T14:07:56.826Z,0.68
2022-11-17T14:10:28.874Z,0.80
2022-11-17T14:13:15.373Z,0.80
2022-11-17T14:15:53.694Z,0.93
2022-11-17T14:18:25.369Z,0.65
2022-11-17T14:21:05.573Z,0.93
2022-11-17T14:23:33.878Z,1.00
2022-11-17T14:26:02.386Z,0.93
2022-11-17T14:28:30.770Z,0.90
2022-11-17T14:31:00.460Z,1.08
2022-11-17T14:33:28.737Z,1.33
2022-11-17T14:35:58.339Z,0.70
2022-11-17T14:38:26.749Z,0.60
2022-11-17T14:40:55.373Z,0.90
2022-11-17T14:43:24.087Z,1.13
2022-11-17T14:45:52.749Z,0.85
2022-11-17T14:48:22.840Z,0.82
2022-11-17T14:50:57.059Z,0.90
2022-11-17T14:53:26.579Z,0.60
2022-11-17T14:55:55.175Z,0.60
2022-11-17T14:58:23.472Z,1.42
2022-11-17T15:00:51.844Z,1.50
2022-11-17T15:03:20.216Z,1.08
2022-11-17T15:05:49.896Z,1.08
2022-11-17T15:08:18.353Z,1.30
2022-11-17T15:10:46.846Z,0.70
2022-11-17T15:13:15.169Z,0.90
2022-11-17T15:15:43.767Z,1.02
2022-11-17T15:18:13.116Z,0.85
2022-11-17T15:20:41.453Z,1.15
2022-11-17T15:23:11.892Z,1.20
2022-11-17T15:25:40.230Z,1.00
2022-11-17T15:28:09.222Z,0.80
2022-11-17T15:30:37.699Z,1.02
2022-11-17T15:33:06.046Z,1.30
2022-11-17T15:35:34.425Z,0.98
2022-11-17T15:38:03.092Z,1.55
2022-11-17T15:40:32.901Z,1.63
2022-11-17T15:43:05.462Z,1.65
2022-11-17T15:45:33.994Z,1.60
2022-11-17T15:48:02.313Z,1.70
2022-11-17T15:50:30.668Z,1.30
2022-11-17T15:53:06.045Z,1.33
2022-11-17T15:55:36.411Z,1.52
2022-11-17T15:58:04.812Z,1.05
2022-11-17T16:00:35.366Z,1.02
2022-11-17T16:03:03.738Z,1.00
2022-11-17T16:05:32.045Z,1.02
2022-11-17T16:08:00.375Z,0.93
2022-11-17T16:10:29.424Z,1.35
2022-11-17T16:13:02.372Z,1.30
2022-11-17T16:15:32.083Z,0.80
2022-11-17T16:18:01.271Z,1.20
2022-11-17T16:20:39.808Z,1.05
2022-11-17T16:23:18.051Z,1.13
2022-11-17T16:25:55.658Z,0.60
2022-11-17T16:28:25.421Z,0.93
2022-11-17T16:30:55.649Z,1.75
2022-11-17T16:33:32.727Z,0.90
2022-11-17T16:36:07.143Z,1.00
2022-11-17T16:38:49.764Z,1.20
2022-11-17T16:41:30.302Z,1.13
2022-11-17T16:44:00.396Z,0.77
2022-11-17T16:46:32.696Z,0.70
2022-11-17T16:49:03.147Z,1.00
2022-11-17T16:51:33.130Z,0.85
2022-11-17T16:54:02.804Z,0.52
2022-11-17T16:56:33.498Z,0.82
2022-11-17T16:59:04.479Z,0.80
2022-11-17T17:01:35.330Z,1.17
2022-11-17T17:04:08.042Z,1.75
2022-11-17T17:06:37.292Z,1.20
2022-11-17T17:09:14.366Z,1.45
2022-11-17T17:11:54.397Z,1.25
2022-11-17T17:14:39.916Z,0.88
2022-11-17T17:17:14.682Z,0.90
2022-11-17T17:19:47.917Z,0.95
2022-11-17T17:22:17.344Z,1.10
2022-11-17T17:24:46.615Z,0.90
2022-11-17T17:27:16.041Z,1.10
2022-11-17T17:29:46.662Z,0.90
2022-11-17T17:32:16.607Z,0.98
2022-11-17T17:34:47.021Z,1.15
2022-11-17T17:37:18.884Z,0.90
2022-11-17T17:39:48.286Z,1.20
2022-11-17T17:42:17.694Z,1.35
2022-11-17T17:44:48.979Z,1.35
2022-11-17T17:47:17.719Z,1.00
2022-11-17T17:49:49.634Z,1.23
2022-11-17T17:52:20.352Z,0.90
2022-11-17T17:54:51.874Z,0.85
2022-11-17T17:57:22.712Z,1.20
2022-11-17T17:59:57.282Z,1.45
2022-11-17T18:02:26.351Z,2.17
2022-11-17T18:04:57.467Z,1.38
2022-11-17T18:07:27.381Z,1.60
2022-11-17T18:09:55.747Z,1.42
2022-11-17T18:12:26.085Z,1.45
2022-11-17T18:15:05.555Z,1.40
2022-11-17T18:17:38.188Z,1.40
2022-11-17T18:20:08.650Z,1.40
2022-11-17T18:22:38.642Z,1.45
2022-11-17T18:25:18.183Z,1.60
2022-11-17T18:27:48.179Z,1.50
2022-11-17T18:30:20.647Z,1.70
2022-11-17T18:32:51.468Z,1.77
2022-11-17T18:35:21.294Z,2.25
2022-11-17T18:38:00.258Z,5.10
2022-11-17T18:40:35.532Z,2.38
2022-11-17T18:43:08.610Z,2.10
2022-11-17T18:45:45.761Z,2.88
2022-11-17T18:48:19.331Z,4.35
2022-11-17T18:51:17.642Z,3.65
2022-11-17T18:53:46.630Z,3.60
2022-11-17T18:56:20.599Z,3.33
2022-11-17T18:58:59.626Z,3.10
2022-11-17T19:01:32.618Z,2.78
2022-11-17T19:04:02.856Z,2.67
2022-11-17T19:06:33.551Z,2.75
2022-11-17T19:09:02.801Z,2.60
2022-11-17T19:11:35.282Z,3.00
2022-11-17T19:14:07.753Z,2.80
2022-11-17T19:16:44.053Z,2.38
2022-11-17T19:19:16.445Z,3.10
2022-11-17T19:21:45.308Z,2.63
2022-11-17T19:24:14.805Z,2.45
2022-11-17T19:26:45.634Z,2.85
2022-11-17T19:29:17.475Z,3.15
2022-11-17T19:31:49.193Z,2.95
2022-11-17T19:34:18.491Z,3.03
2022-11-17T19:36:47.727Z,2.65
2022-11-17T19:39:17.230Z,3.00
2022-11-17T19:41:47.868Z,3.55
2022-11-17T19:44:16.555Z,3.85
2022-11-17T19:46:45.114Z,3.13
2022-11-17T19:49:15.271Z,3.20
2022-11-17T19:51:45.037Z,3.10
2022-11-17T19:54:14.617Z,3.15
2022-11-17T19:56:44.336Z,3.10
2022-11-17T19:59:16.327Z,3.33
2022-11-17T20:01:47.808Z,2.80
2022-11-17T20:04:19.353Z,2.65
2022-11-17T20:06:48.563Z,2.67
2022-11-17T20:09:18.483Z,2.33
2022-11-17T20:11:48.086Z,3.67
2022-11-17T20:14:16.806Z,2.97
2022-11-17T20:16:46.072Z,3.67
2022-11-17T20:19:14.864Z,3.78
2022-11-17T20:21:45.773Z,3.40
2022-11-17T20:24:14.447Z,3.60
2022-11-17T20:26:44.347Z,3.00
2022-11-17T20:29:15.967Z,3.65
2022-11-17T20:31:45.180Z,3.58
2022-11-17T20:34:14.348Z,3.35
2022-11-17T20:36:42.724Z,3.10
2022-11-17T20:39:12.543Z,2.80
2022-11-17T20:41:41.009Z,2.90
2022-11-17T20:44:23.522Z,3.05
2022-11-17T20:46:52.237Z,3.00
2022-11-17T20:49:20.600Z,2.92
2022-11-17T20:51:49.156Z,3.00
2022-11-17T20:54:19.829Z,2.92
2022-11-17T20:56:48.150Z,2.35
2022-11-17T20:59:20.030Z,3.00
2022-11-17T21:01:49.235Z,2.33
2022-11-17T21:04:17.613Z,2.35
2022-11-17T21:06:45.945Z,2.85
2022-11-17T21:09:14.635Z,2.90
2022-11-17T21:12:00.035Z,2.80
2022-11-17T21:14:29.164Z,2.92
2022-11-17T21:17:00.353Z,2.60
2022-11-17T21:19:29.209Z,3.50
2022-11-17T21:21:57.522Z,3.60
2022-11-17T21:24:26.463Z,3.65
2022-11-17T21:26:56.781Z,3.28
2022-11-17T21:29:25.341Z,3.60
2022-11-17T21:31:53.663Z,3.50
2022-11-17T21:34:22.022Z,3.13
2022-11-17T21:36:50.339Z,3.83
2022-11-17T21:39:19.726Z,3.30
2022-11-17T21:41:48.102Z,3.72
2022-11-17T21:44:18.114Z,3.65
2022-11-17T21:46:46.533Z,3.60
2022-11-17T21:49:15.157Z,3.88
2022-11-17T21:51:44.851Z,4.05
2022-11-17T21:54:13.229Z,4.22
2022-11-17T21:56:41.555Z,3.90
2022-11-17T21:59:12.053Z,4.07
2022-11-17T22:01:41.861Z,4.10
2022-11-17T22:04:10.387Z,3.30
2022-11-17T22:06:39.445Z,3.80
2022-11-17T22:09:07.736Z,3.10
2022-11-17T22:11:36.766Z,3.72
2022-11-17T22:14:06.705Z,3.50
2022-11-17T22:16:35.931Z,3.47
2022-11-17T22:19:05.982Z,3.65
2022-11-17T22:21:36.172Z,4.05
2022-11-17T22:24:05.042Z,4.22
2022-11-17T22:26:35.694Z,4.28
2022-11-17T22:29:04.017Z,4.35
2022-11-17T22:31:32.837Z,4.53
2022-11-17T22:34:01.167Z,4.38
2022-11-17T22:36:30.918Z,4.20
2022-11-17T22:38:59.238Z,4.18
2022-11-17T22:41:27.523Z,3.65
2022-11-17T22:43:56.687Z,4.10
2022-11-17T22:46:25.844Z,4.28
2022-11-17T22:48:54.307Z,3.88
2022-11-17T22:51:40.560Z,3.75
2022-11-17T22:54:10.247Z,3.97
2022-11-17T22:56:39.479Z,4.65
2022-11-17T22:59:10.401Z,4.53
2022-11-17T23:01:38.793Z,4.50
2022-11-17T23:04:07.932Z,4.30
2022-11-17T23:06:36.663Z,3.83
2022-11-17T23:09:05.087Z,4.07
2022-11-17T23:11:37.403Z,3.83
2022-11-17T23:14:07.150Z,3.40
2022-11-17T23:16:35.702Z,3.47
2022-11-17T23:19:04.189Z,3.55
2022-11-17T23:21:32.649Z,3.65
2022-11-17T23:24:01.326Z,3.15
2022-11-17T23:26:29.873Z,3.08
2022-11-17T23:29:00.056Z,3.45
2022-11-17T23:31:28.794Z,3.70
2022-11-17T23:33:57.460Z,3.40
2022-11-17T23:36:26.119Z,4.05
2022-11-17T23:38:56.157Z,3.92
2022-11-17T23:41:24.751Z,3.80
2022-11-17T23:43:53.966Z,4.10
2022-11-17T23:46:24.697Z,5.00
2022-11-17T23:48:53.567Z,4.28
2022-11-17T23:51:22.796Z,4.38
2022-11-17T23:53:51.336Z,4.80
2022-11-17T23:56:20.559Z,4.85
2022-11-17T23:58:49.126Z,4.78
